createdAt,value
2018-11-11T00:00:51.910Z,14.80
2018-11-11T00:03:20.930Z,14.70
2018-11-11T00:05:49.184Z,14.60
2018-11-11T00:08:18.203Z,14.50
2018-11-11T00:10:46.471Z,14.50
2018-11-11T00:13:14.767Z,14.50
2018-11-11T00:15:42.998Z,14.40
2018-11-11T00:18:12.017Z,14.40
2018-11-11T00:20:40.287Z,14.40
2018-11-11T00:23:08.529Z,14.40
2018-11-11T00:25:37.563Z,14.60
2018-11-11T00:28:05.855Z,14.60
2018-11-11T00:30:34.092Z,14.60
2018-11-11T00:35:37.603Z,14.50
2018-11-11T00:38:06.655Z,14.40
2018-11-11T00:40:34.925Z,14.40
2018-11-11T00:43:03.170Z,14.30
2018-11-11T00:45:31.429Z,14.30
2018-11-11T00:48:00.490Z,14.20
2018-11-11T00:50:28.739Z,14.20
2018-11-11T00:52:57.006Z,14.20
2018-11-11T00:55:25.247Z,14.20
2018-11-11T00:57:53.498Z,14.20
2018-11-11T01:00:22.527Z,14.20
2018-11-11T01:02:50.768Z,14.20
2018-11-11T01:05:19.014Z,14.10
2018-11-11T01:07:47.276Z,14.10
2018-11-11T01:10:15.551Z,14.10
2018-11-11T01:12:43.786Z,14.10
2018-11-11T01:15:12.047Z,14.10
2018-11-11T01:17:41.050Z,14.00
2018-11-11T01:20:10.096Z,14.00
2018-11-11T01:22:38.358Z,14.00
2018-11-11T01:25:06.630Z,14.00
2018-11-11T01:27:34.879Z,13.90
2018-11-11T01:30:03.163Z,13.90
2018-11-11T01:32:31.412Z,13.90
2018-11-11T01:35:00.438Z,14.00
2018-11-11T01:37:28.679Z,14.00
2018-11-11T01:39:58.539Z,14.10
2018-11-11T01:42:26.786Z,14.10
2018-11-11T01:44:55.057Z,14.10
2018-11-11T01:47:24.093Z,14.10
2018-11-11T01:49:52.397Z,14.10
2018-11-11T01:52:21.434Z,14.00
2018-11-11T01:54:49.685Z,14.00
2018-11-11T01:57:18.722Z,13.90
2018-11-11T01:59:46.958Z,13.90
2018-11-11T02:02:15.210Z,13.80
2018-11-11T02:04:43.478Z,13.80
2018-11-11T02:07:11.723Z,13.80
2018-11-11T02:09:39.990Z,13.80
2018-11-11T02:12:08.218Z,13.70
2018-11-11T02:14:37.244Z,13.70
2018-11-11T02:17:05.762Z,13.70
2018-11-11T02:19:34.011Z,13.60
2018-11-11T02:22:02.257Z,13.50
2018-11-11T02:24:30.506Z,13.40
2018-11-11T02:26:58.761Z,13.40
2018-11-11T02:29:27.019Z,13.30
2018-11-11T02:31:55.299Z,13.30
2018-11-11T02:34:23.530Z,13.30
2018-11-11T02:36:51.796Z,13.20
2018-11-11T02:39:20.887Z,13.20
2018-11-11T02:41:49.112Z,13.20
2018-11-11T02:44:17.362Z,13.20
2018-11-11T02:46:45.938Z,13.10
2018-11-11T02:49:14.173Z,13.10
2018-11-11T02:51:42.414Z,13.10
2018-11-11T02:54:10.679Z,13.10
2018-11-11T02:56:38.928Z,13.00
2018-11-11T02:59:07.165Z,13.00
2018-11-11T03:01:35.418Z,13.00
2018-11-11T03:04:03.890Z,13.00
2018-11-11T03:06:32.126Z,12.90
2018-11-11T03:09:00.378Z,12.90
2018-11-11T03:11:29.389Z,12.80
2018-11-11T03:13:57.643Z,12.80
2018-11-11T03:16:26.667Z,12.80
2018-11-11T03:18:54.923Z,12.70
2018-11-11T03:21:23.931Z,12.70
2018-11-11T03:23:52.903Z,12.70
2018-11-11T03:26:21.906Z,12.60
2018-11-11T03:28:50.926Z,12.60
2018-11-11T03:31:19.183Z,12.50
2018-11-11T03:33:47.427Z,12.60
2018-11-11T03:36:15.690Z,12.60
2018-11-11T03:38:43.939Z,12.60
2018-11-11T03:41:12.241Z,12.60
2018-11-11T03:43:40.494Z,12.60
2018-11-11T03:46:08.734Z,12.60
2018-11-11T03:48:36.971Z,12.60
2018-11-11T03:51:06.477Z,12.60
2018-11-11T03:53:34.702Z,12.60
2018-11-11T03:56:02.938Z,12.60
2018-11-11T03:58:31.950Z,12.70
2018-11-11T04:01:00.467Z,12.70
2018-11-11T04:03:28.702Z,12.70
2018-11-11T04:05:56.937Z,12.70
2018-11-11T04:08:25.470Z,12.60
2018-11-11T04:10:53.731Z,12.50
2018-11-11T04:13:21.967Z,12.50
2018-11-11T04:15:50.222Z,12.50
2018-11-11T04:18:18.475Z,12.50
2018-11-11T04:20:46.744Z,12.50
2018-11-11T04:23:14.973Z,12.50
2018-11-11T04:25:43.219Z,12.50
2018-11-11T04:28:11.842Z,12.50
2018-11-11T04:30:40.047Z,12.60
2018-11-11T04:33:08.287Z,12.60
2018-11-11T04:35:37.623Z,12.60
2018-11-11T04:38:05.871Z,12.60
2018-11-11T04:40:34.879Z,12.60
2018-11-11T04:43:03.142Z,12.60
2018-11-11T04:45:31.695Z,12.50
2018-11-11T04:47:59.967Z,12.50
2018-11-11T04:50:28.231Z,12.40
2018-11-11T04:52:56.494Z,12.50
2018-11-11T04:55:24.758Z,12.40
2018-11-11T04:57:52.984Z,12.40
2018-11-11T05:00:21.245Z,12.40
2018-11-11T05:02:49.482Z,12.50
2018-11-11T05:05:17.745Z,12.50
2018-11-11T05:07:45.985Z,12.60
2018-11-11T05:10:14.993Z,12.50
2018-11-11T05:12:44.011Z,12.50
2018-11-11T05:15:12.250Z,12.50
2018-11-11T05:17:41.287Z,12.50
2018-11-11T05:20:09.530Z,12.40
2018-11-11T05:22:38.551Z,12.40
2018-11-11T05:25:07.011Z,12.40
2018-11-11T05:27:35.270Z,12.40
2018-11-11T05:30:04.283Z,12.50
2018-11-11T05:32:32.533Z,12.50
2018-11-11T05:35:01.556Z,12.50
2018-11-11T05:37:30.130Z,12.50
2018-11-11T05:39:58.403Z,12.50
2018-11-11T05:42:26.640Z,12.60
2018-11-11T05:44:54.926Z,12.60
2018-11-11T05:47:23.191Z,12.60
2018-11-11T05:49:51.429Z,12.60
2018-11-11T05:52:19.678Z,12.60
2018-11-11T05:54:47.919Z,12.60
2018-11-11T05:57:16.176Z,12.70
2018-11-11T05:59:44.411Z,12.70
2018-11-11T06:02:12.658Z,12.70
2018-11-11T06:04:41.681Z,13.10
2018-11-11T06:07:10.016Z,13.10
2018-11-11T06:09:38.218Z,13.10
2018-11-11T06:12:06.478Z,13.40
2018-11-11T06:14:35.499Z,13.50
2018-11-11T06:17:03.718Z,13.50
2018-11-11T06:19:32.022Z,13.30
2018-11-11T06:22:00.227Z,13.20
2018-11-11T06:24:28.486Z,13.20
2018-11-11T06:26:56.723Z,13.30
2018-11-11T06:29:24.970Z,13.40
2018-11-11T06:31:53.210Z,13.40
2018-11-11T06:34:21.473Z,13.40
2018-11-11T06:36:50.506Z,13.60
2018-11-11T06:39:18.750Z,13.60
2018-11-11T06:41:47.002Z,13.60
2018-11-11T06:44:16.021Z,13.60
2018-11-11T06:46:44.275Z,13.60
2018-11-11T06:49:13.283Z,13.70
2018-11-11T06:51:41.882Z,13.70
2018-11-11T06:54:10.126Z,13.70
2018-11-11T06:56:39.130Z,13.70
2018-11-11T06:59:07.553Z,13.70
2018-11-11T07:01:35.805Z,13.60
2018-11-11T07:04:04.045Z,13.60
2018-11-11T07:06:33.384Z,13.70
2018-11-11T07:09:01.603Z,13.70
2018-11-11T07:11:29.834Z,13.70
2018-11-11T07:13:58.159Z,13.70
2018-11-11T07:16:26.337Z,13.70
2018-11-11T07:18:56.476Z,13.70
2018-11-11T07:21:25.670Z,13.70
2018-11-11T07:23:54.781Z,13.70
2018-11-11T07:26:22.978Z,13.70
2018-11-11T07:28:51.218Z,13.60
2018-11-11T07:31:19.564Z,13.60
2018-11-11T07:33:47.771Z,13.70
2018-11-11T07:36:16.048Z,13.70
2018-11-11T07:38:44.298Z,13.70
2018-11-11T07:41:13.304Z,13.80
2018-11-11T07:43:41.643Z,13.70
2018-11-11T07:46:09.878Z,13.90
2018-11-11T07:48:38.118Z,13.90
2018-11-11T07:51:07.668Z,14.10
2018-11-11T07:53:36.755Z,14.20
2018-11-11T07:56:05.007Z,14.20
2018-11-11T07:58:33.328Z,14.30
2018-11-11T08:01:02.493Z,14.40
2018-11-11T08:03:30.726Z,14.40
2018-11-11T08:06:00.970Z,14.60
2018-11-11T08:08:29.197Z,14.60
2018-11-11T08:11:20.275Z,14.60
2018-11-11T08:13:48.469Z,14.70
2018-11-11T08:16:16.725Z,14.90
2018-11-11T08:18:44.994Z,14.90
2018-11-11T08:21:13.254Z,15.00
2018-11-11T08:23:41.861Z,15.10
2018-11-11T08:26:10.099Z,15.20
2018-11-11T08:28:39.105Z,15.60
2018-11-11T08:31:07.910Z,15.60
2018-11-11T08:33:36.202Z,15.70
2018-11-11T08:36:04.437Z,15.80
2018-11-11T08:38:32.715Z,15.90
2018-11-11T08:41:02.067Z,16.10
2018-11-11T08:43:30.286Z,16.10
2018-11-11T08:45:59.299Z,16.30
2018-11-11T08:48:27.556Z,16.30
2018-11-11T08:50:55.806Z,16.30
2018-11-11T08:53:24.831Z,16.30
2018-11-11T08:55:53.066Z,16.30
2018-11-11T08:58:21.330Z,16.50
2018-11-11T09:00:49.658Z,16.60
2018-11-11T09:03:17.898Z,16.70
2018-11-11T09:05:46.142Z,16.60
2018-11-11T09:08:14.691Z,16.70
2018-11-11T09:10:42.927Z,16.90
2018-11-11T09:13:11.186Z,17.00
2018-11-11T09:15:39.675Z,17.10
2018-11-11T09:18:07.927Z,17.10
2018-11-11T09:20:36.167Z,17.30
2018-11-11T09:23:04.434Z,17.50
2018-11-11T09:25:32.686Z,17.40
2018-11-11T09:28:01.708Z,17.60
2018-11-11T09:30:30.109Z,17.60
2018-11-11T09:32:58.750Z,17.70
2018-11-11T09:35:27.827Z,17.90
2018-11-11T09:37:55.990Z,17.90
2018-11-11T09:40:24.519Z,18.00
2018-11-11T09:42:52.767Z,18.00
2018-11-11T09:45:21.036Z,18.20
2018-11-11T09:47:49.280Z,18.20
2018-11-11T09:50:17.517Z,18.10
2018-11-11T09:52:45.883Z,18.20
2018-11-11T09:55:14.074Z,18.20
2018-11-11T09:57:42.330Z,18.10
2018-11-11T10:00:11.343Z,18.30
2018-11-11T10:02:39.609Z,18.30
2018-11-11T10:05:08.364Z,18.30
2018-11-11T10:07:36.574Z,18.40
2018-11-11T10:10:04.810Z,18.50
2018-11-11T10:12:33.906Z,18.50
2018-11-11T10:15:02.082Z,18.40
2018-11-11T10:17:30.314Z,18.50
2018-11-11T10:19:58.600Z,18.60
2018-11-11T10:22:27.212Z,18.60
2018-11-11T10:24:55.415Z,18.60
2018-11-11T10:27:23.754Z,18.60
2018-11-11T10:29:51.980Z,18.60
2018-11-11T10:35:37.075Z,18.80
2018-11-11T10:38:05.302Z,18.60
2018-11-11T10:40:34.311Z,18.60
2018-11-11T10:43:03.342Z,18.50
2018-11-11T10:45:31.579Z,18.50
2018-11-11T10:47:59.825Z,18.40
2018-11-11T10:50:28.090Z,18.50
2018-11-11T10:52:56.340Z,18.50
2018-11-11T10:55:24.638Z,18.60
2018-11-11T10:57:52.896Z,18.60
2018-11-11T11:00:21.284Z,18.50
2018-11-11T11:02:49.452Z,18.50
2018-11-11T11:05:17.703Z,18.60
2018-11-11T11:07:45.959Z,18.60
2018-11-11T11:10:14.220Z,18.50
2018-11-11T11:12:43.230Z,18.70
2018-11-11T11:15:11.481Z,18.70
2018-11-11T11:17:40.818Z,18.80
2018-11-11T11:20:09.120Z,18.80
2018-11-11T11:22:37.355Z,18.90
2018-11-11T11:25:05.603Z,18.90
2018-11-11T11:27:34.613Z,19.10
2018-11-11T11:30:02.867Z,19.10
2018-11-11T11:32:31.094Z,19.30
2018-11-11T11:34:59.362Z,19.30
2018-11-11T11:37:27.600Z,19.30
2018-11-11T11:39:57.752Z,19.20
2018-11-11T11:42:26.309Z,19.20
2018-11-11T11:44:55.331Z,19.10
2018-11-11T11:47:23.657Z,19.10
2018-11-11T11:49:52.681Z,19.10
2018-11-11T11:52:20.959Z,19.10
2018-11-11T11:54:49.122Z,19.20
2018-11-11T11:57:17.375Z,19.30
2018-11-11T11:59:46.379Z,19.50
2018-11-11T12:02:15.461Z,19.50
2018-11-11T12:04:43.662Z,19.50
2018-11-11T12:07:11.951Z,19.50
2018-11-11T12:09:40.215Z,19.40
2018-11-11T12:12:08.459Z,19.50
2018-11-11T12:14:36.717Z,19.60
2018-11-11T12:17:06.531Z,19.70
2018-11-11T12:19:34.743Z,19.80
2018-11-11T12:22:03.758Z,19.70
2018-11-11T12:24:32.010Z,19.60
2018-11-11T12:27:00.523Z,19.80
2018-11-11T12:29:28.767Z,19.90
2018-11-11T12:31:57.018Z,19.90
2018-11-11T12:34:26.051Z,20.20
2018-11-11T12:36:54.352Z,20.20
2018-11-11T12:39:22.954Z,20.30
2018-11-11T12:41:51.138Z,20.40
2018-11-11T12:44:19.407Z,20.50
2018-11-11T12:46:47.771Z,20.40
2018-11-11T12:49:15.973Z,20.30
2018-11-11T12:51:44.147Z,20.30
2018-11-11T12:54:13.200Z,20.40
2018-11-11T12:56:41.424Z,20.30
2018-11-11T12:59:11.126Z,20.20
2018-11-11T13:01:40.123Z,20.00
2018-11-11T13:04:09.167Z,19.90
2018-11-11T13:06:37.455Z,19.80
2018-11-11T13:09:05.967Z,19.90
2018-11-11T13:11:35.068Z,20.10
2018-11-11T13:14:03.982Z,20.40
2018-11-11T13:16:32.233Z,20.30
2018-11-11T13:19:01.247Z,20.50
2018-11-11T13:21:29.531Z,20.40
2018-11-11T13:23:57.771Z,20.50
2018-11-11T13:26:26.774Z,20.30
2018-11-11T13:28:55.031Z,20.30
2018-11-11T13:31:24.071Z,20.40
2018-11-11T13:33:52.488Z,20.50
2018-11-11T13:36:20.742Z,20.50
2018-11-11T13:38:49.007Z,20.50
2018-11-11T13:41:17.243Z,20.60
2018-11-11T13:43:46.278Z,20.50
2018-11-11T13:46:14.608Z,20.40
2018-11-11T13:48:42.794Z,20.40
2018-11-11T13:51:12.010Z,20.40
2018-11-11T13:53:40.274Z,20.40
2018-11-11T13:56:08.535Z,20.60
2018-11-11T13:58:37.557Z,20.60
2018-11-11T14:01:05.802Z,20.50
2018-11-11T14:03:34.074Z,20.70
2018-11-11T14:06:03.167Z,20.60
2018-11-11T14:08:31.441Z,20.60
2018-11-11T14:11:00.524Z,21.00
2018-11-11T14:13:28.763Z,21.00
2018-11-11T14:15:57.038Z,21.20
2018-11-11T14:18:25.343Z,21.30
2018-11-11T14:20:53.530Z,21.40
2018-11-11T14:23:22.576Z,21.50
2018-11-11T14:25:50.861Z,21.50
2018-11-11T14:28:19.822Z,21.30
2018-11-11T14:30:48.074Z,21.30
2018-11-11T14:33:16.323Z,21.30
2018-11-11T14:35:44.644Z,21.30
2018-11-11T14:38:12.868Z,21.20
2018-11-11T14:40:41.114Z,21.00
2018-11-11T14:43:10.148Z,20.70
2018-11-11T14:45:38.423Z,20.70
2018-11-11T14:48:06.703Z,20.60
2018-11-11T14:50:35.712Z,20.30
2018-11-11T14:53:04.059Z,20.30
2018-11-11T14:55:32.994Z,20.20
2018-11-11T14:58:01.362Z,20.10
2018-11-11T15:00:29.506Z,20.10
2018-11-11T15:02:58.549Z,19.90
2018-11-11T15:05:26.814Z,19.90
2018-11-11T15:07:55.073Z,19.80
2018-11-11T15:10:24.090Z,19.70
2018-11-11T15:12:52.407Z,19.70
2018-11-11T15:15:21.415Z,19.60
2018-11-11T15:17:49.674Z,19.60
2018-11-11T15:20:18.136Z,19.60
2018-11-11T15:22:46.169Z,19.60
2018-11-11T15:25:14.535Z,19.60
2018-11-11T15:27:42.695Z,19.50
2018-11-11T15:30:11.728Z,19.30
2018-11-11T15:32:39.985Z,19.30
2018-11-11T15:35:08.247Z,19.10
2018-11-11T15:37:36.530Z,19.00
2018-11-11T15:40:04.778Z,18.90
2018-11-11T15:42:33.810Z,18.70
2018-11-11T15:45:02.078Z,18.70
2018-11-11T15:47:30.318Z,18.50
2018-11-11T15:49:59.411Z,18.40
2018-11-11T15:52:27.630Z,18.30
2018-11-11T15:54:55.891Z,18.30
2018-11-11T15:57:24.131Z,18.20
2018-11-11T15:59:52.429Z,18.10
2018-11-11T16:02:21.444Z,17.90
2018-11-11T16:04:49.685Z,17.80
2018-11-11T16:07:18.711Z,17.60
2018-11-11T16:09:46.951Z,17.60
2018-11-11T16:12:15.998Z,17.50
2018-11-11T16:14:44.242Z,17.40
2018-11-11T16:17:12.674Z,17.30
2018-11-11T16:19:40.936Z,17.20
2018-11-11T16:22:09.207Z,17.20
2018-11-11T16:24:37.486Z,17.10
2018-11-11T16:27:05.750Z,17.00
2018-11-11T16:29:34.066Z,16.90
2018-11-11T16:32:02.278Z,16.80
2018-11-11T16:34:30.530Z,16.60
2018-11-11T16:36:59.623Z,16.50
2018-11-11T16:39:27.908Z,16.40
2018-11-11T16:41:56.134Z,16.40
2018-11-11T16:44:24.378Z,16.40
2018-11-11T16:46:52.613Z,16.30
2018-11-11T16:49:21.653Z,16.20
2018-11-11T16:51:49.913Z,16.20
2018-11-11T16:54:18.195Z,16.20
2018-11-11T16:56:46.463Z,16.10
2018-11-11T16:59:14.728Z,16.00
2018-11-11T17:01:43.018Z,15.90
2018-11-11T17:04:11.327Z,15.90
2018-11-11T17:06:40.332Z,15.80
2018-11-11T17:09:08.605Z,15.80
2018-11-11T17:11:36.859Z,15.80
2018-11-11T17:14:05.200Z,15.70
2018-11-11T17:16:33.405Z,15.70
2018-11-11T17:19:01.664Z,15.60
2018-11-11T17:21:29.959Z,15.60
2018-11-11T17:23:58.200Z,15.50
2018-11-11T17:26:26.461Z,15.50
2018-11-11T17:28:55.534Z,15.60
2018-11-11T17:31:23.750Z,15.60
2018-11-11T17:33:52.020Z,15.60
2018-11-11T17:36:21.011Z,15.90
2018-11-11T17:38:49.290Z,15.90
2018-11-11T17:41:17.572Z,16.10
2018-11-11T17:43:46.561Z,16.40
2018-11-11T17:46:14.835Z,16.40
2018-11-11T17:48:43.142Z,16.60
2018-11-11T17:51:12.249Z,16.60
2018-11-11T17:53:40.498Z,16.60
2018-11-11T17:56:08.794Z,16.60
2018-11-11T17:58:37.031Z,16.60
2018-11-11T18:01:05.656Z,16.70
2018-11-11T18:03:33.957Z,16.80
2018-11-11T18:06:02.858Z,16.80
2018-11-11T18:08:31.898Z,16.70
2018-11-11T18:11:00.142Z,16.70
2018-11-11T18:13:28.418Z,16.70
2018-11-11T18:15:56.671Z,16.70
2018-11-11T18:18:25.710Z,16.60
2018-11-11T18:20:53.962Z,16.50
2018-11-11T18:23:22.210Z,16.60
2018-11-11T18:25:51.238Z,16.50
2018-11-11T18:28:19.620Z,16.50
2018-11-11T18:30:48.402Z,16.60
2018-11-11T18:33:16.655Z,16.60
2018-11-11T18:35:45.707Z,16.70
2018-11-11T18:38:13.980Z,16.70
2018-11-11T18:40:42.221Z,16.70
2018-11-11T18:43:10.487Z,16.70
2018-11-11T18:45:39.662Z,16.80
2018-11-11T18:48:08.719Z,16.80
2018-11-11T18:50:37.401Z,16.70
2018-11-11T18:53:06.406Z,16.70
2018-11-11T18:55:34.678Z,16.80
2018-11-11T18:58:02.910Z,16.80
2018-11-11T19:00:31.185Z,16.80
2018-11-11T19:02:59.448Z,16.80
2018-11-11T19:05:27.722Z,16.90
2018-11-11T19:07:55.970Z,16.80
2018-11-11T19:10:25.089Z,16.70
2018-11-11T19:12:53.268Z,16.70
2018-11-11T19:15:22.294Z,16.60
2018-11-11T19:17:50.539Z,16.60
2018-11-11T19:20:18.827Z,16.50
2018-11-11T19:22:47.071Z,16.50
2018-11-11T19:25:16.206Z,16.50
2018-11-11T19:27:44.445Z,16.50
2018-11-11T19:30:12.702Z,16.50
2018-11-11T19:32:40.898Z,16.40
2018-11-11T19:35:09.114Z,16.30
2018-11-11T19:37:37.391Z,16.40
2018-11-11T19:40:06.402Z,16.40
2018-11-11T19:42:34.681Z,16.30
2018-11-11T19:45:02.929Z,16.40
2018-11-11T19:47:31.270Z,16.40
2018-11-11T19:50:00.858Z,16.40
2018-11-11T19:52:30.018Z,16.60
2018-11-11T19:54:58.310Z,16.60
2018-11-11T19:57:26.693Z,16.60
2018-11-11T19:59:55.088Z,16.50
2018-11-11T20:02:24.136Z,16.60
2018-11-11T20:04:52.381Z,16.60
2018-11-11T20:07:20.727Z,16.60
2018-11-11T20:09:49.111Z,16.60
2018-11-11T20:12:18.219Z,16.70
2018-11-11T20:14:47.371Z,16.70
2018-11-11T20:17:15.833Z,16.70
2018-11-11T20:19:44.351Z,16.60
2018-11-11T20:22:13.367Z,16.60
2018-11-11T20:24:41.657Z,16.60
2018-11-11T20:27:09.901Z,16.70
2018-11-11T20:29:38.919Z,16.80
2018-11-11T20:32:07.227Z,16.80
2018-11-11T20:34:35.482Z,16.80
2018-11-11T20:37:03.794Z,16.90
2018-11-11T20:39:32.017Z,16.90
2018-11-11T20:42:00.266Z,16.90
2018-11-11T20:44:29.298Z,16.90
2018-11-11T20:46:57.532Z,16.90
2018-11-11T20:49:26.573Z,16.90
2018-11-11T20:51:54.834Z,16.90
2018-11-11T20:54:23.094Z,17.00
2018-11-11T20:56:51.443Z,17.00
2018-11-11T20:59:20.373Z,17.00
2018-11-11T21:01:48.663Z,17.00
2018-11-11T21:04:16.900Z,17.00
2018-11-11T21:06:45.931Z,17.00
2018-11-11T21:09:14.507Z,17.00
2018-11-11T21:11:42.662Z,17.00
2018-11-11T21:14:11.699Z,17.00
2018-11-11T21:16:39.967Z,17.00
2018-11-11T21:19:08.229Z,17.10
2018-11-11T21:21:36.479Z,17.20
2018-11-11T21:24:04.746Z,17.20
2018-11-11T21:26:33.035Z,17.20
2018-11-11T21:29:01.311Z,17.10
2018-11-11T21:31:29.606Z,17.20
2018-11-11T21:33:57.862Z,17.10
2018-11-11T21:36:26.108Z,17.10
2018-11-11T21:38:55.136Z,16.90
2018-11-11T21:41:23.380Z,16.90
2018-11-11T21:43:52.865Z,16.80
2018-11-11T21:46:21.114Z,16.80
2018-11-11T21:48:49.375Z,16.80
2018-11-11T21:51:17.658Z,16.90
2018-11-11T21:53:45.935Z,16.80
2018-11-11T21:56:14.227Z,16.60
2018-11-11T21:58:42.442Z,16.50
2018-11-11T22:01:11.496Z,16.40
2018-11-11T22:03:39.746Z,16.30
2018-11-11T22:06:07.993Z,16.30
2018-11-11T22:08:36.256Z,16.20
2018-11-11T22:11:05.404Z,16.10
2018-11-11T22:13:33.905Z,16.10
2018-11-11T22:16:02.304Z,16.30
2018-11-11T22:18:30.439Z,16.40
2018-11-11T22:20:58.702Z,16.60
2018-11-11T22:23:26.936Z,16.70
2018-11-11T22:25:55.202Z,16.70
2018-11-11T22:28:24.210Z,16.80
2018-11-11T22:30:52.561Z,16.80
2018-11-11T22:33:20.765Z,16.80
2018-11-11T22:35:49.030Z,16.70
2018-11-11T22:38:18.103Z,16.80
2018-11-11T22:40:46.311Z,16.80
2018-11-11T22:43:14.661Z,16.80
2018-11-11T22:45:42.892Z,16.80
2018-11-11T22:48:11.160Z,16.80
2018-11-11T22:50:39.398Z,16.90
2018-11-11T22:53:07.638Z,17.00
2018-11-11T22:55:35.905Z,17.00
2018-11-11T22:58:04.193Z,17.00
2018-11-11T23:00:32.439Z,17.00
2018-11-11T23:03:00.689Z,17.00
2018-11-11T23:05:29.133Z,17.00
2018-11-11T23:07:58.141Z,17.20
2018-11-11T23:10:26.398Z,17.20
2018-11-11T23:12:55.428Z,17.20
2018-11-11T23:15:23.689Z,17.20
2018-11-11T23:17:51.940Z,17.10
2018-11-11T23:20:20.974Z,17.10
2018-11-11T23:22:49.218Z,17.20
2018-11-11T23:25:18.245Z,17.30
2018-11-11T23:27:46.486Z,17.30
2018-11-11T23:30:15.494Z,17.30
2018-11-11T23:32:43.763Z,17.30
2018-11-11T23:35:12.011Z,17.20
2018-11-11T23:37:40.269Z,17.20
2018-11-11T23:40:08.526Z,17.10
2018-11-11T23:42:36.790Z,17.10
2018-11-11T23:45:05.038Z,17.10
2018-11-11T23:47:33.287Z,17.00
2018-11-11T23:50:02.422Z,16.90
2018-11-11T23:52:30.678Z,16.80
2018-11-11T23:54:58.938Z,16.70
2018-11-11T23:57:27.983Z,16.50
2018-11-11T23:59:59.151Z,16.50
